sensor_id;sensor_type;location;lat;lon;timestamp;P1;durP1;ratioP1;P2;durP2;ratioP2
15936;SDS011;9163;48.818;8.976;2023-12-28T00:00:26;3.63;;;2.40;;
15936;SDS011;9163;48.818;8.976;2023-12-28T00:02:53;3.43;;;2.30;;
15936;SDS011;9163;48.818;8.976;2023-12-28T00:05:20;4.30;;;2.20;;
15936;SDS011;9163;48.818;8.976;2023-12-28T00:07:48;4.00;;;2.60;;
15936;SDS011;9163;48.818;8.976;2023-12-28T00:10:22;3.60;;;2.67;;
15936;SDS011;9163;48.818;8.976;2023-12-28T00:12:50;4.00;;;2.90;;
15936;SDS011;9163;48.818;8.976;2023-12-28T00:15:18;3.17;;;2.00;;
15936;SDS011;9163;48.818;8.976;2023-12-28T00:17:46;3.80;;;2.27;;
15936;SDS011;9163;48.818;8.976;2023-12-28T00:20:13;2.63;;;2.07;;
15936;SDS011;9163;48.818;8.976;2023-12-28T00:22:40;3.23;;;2.33;;
15936;SDS011;9163;48.818;8.976;2023-12-28T00:25:07;3.60;;;2.17;;
15936;SDS011;9163;48.818;8.976;2023-12-28T00:27:35;3.23;;;2.10;;
15936;SDS011;9163;48.818;8.976;2023-12-28T00:30:03;3.13;;;2.27;;
15936;SDS011;9163;48.818;8.976;2023-12-28T00:32:33;3.90;;;2.07;;
15936;SDS011;9163;48.818;8.976;2023-12-28T00:35:00;2.50;;;2.10;;
15936;SDS011;9163;48.818;8.976;2023-12-28T00:37:27;3.67;;;2.00;;
15936;SDS011;9163;48.818;8.976;2023-12-28T00:39:55;5.00;;;2.23;;
15936;SDS011;9163;48.818;8.976;2023-12-28T00:42:22;3.17;;;2.20;;
15936;SDS011;9163;48.818;8.976;2023-12-28T00:44:49;3.23;;;2.10;;
15936;SDS011;9163;48.818;8.976;2023-12-28T00:47:17;2.83;;;2.03;;
15936;SDS011;9163;48.818;8.976;2023-12-28T00:49:46;2.77;;;1.97;;
15936;SDS011;9163;48.818;8.976;2023-12-28T00:52:13;3.50;;;2.13;;
15936;SDS011;9163;48.818;8.976;2023-12-28T00:54:40;3.23;;;2.20;;
15936;SDS011;9163;48.818;8.976;2023-12-28T00:57:07;3.63;;;2.23;;
15936;SDS011;9163;48.818;8.976;2023-12-28T00:59:35;2.77;;;2.10;;
15936;SDS011;9163;48.818;8.976;2023-12-28T01:02:02;3.30;;;2.00;;
15936;SDS011;9163;48.818;8.976;2023-12-28T01:04:30;2.63;;;1.87;;
15936;SDS011;9163;48.818;8.976;2023-12-28T01:06:58;3.00;;;1.70;;
15936;SDS011;9163;48.818;8.976;2023-12-28T01:09:27;2.47;;;1.90;;
15936;SDS011;9163;48.818;8.976;2023-12-28T01:11:54;2.67;;;1.83;;
15936;SDS011;9163;48.818;8.976;2023-12-28T01:14:22;4.17;;;2.20;;
15936;SDS011;9163;48.818;8.976;2023-12-28T01:16:49;4.47;;;2.27;;
15936;SDS011;9163;48.818;8.976;2023-12-28T01:19:16;2.53;;;1.97;;
15936;SDS011;9163;48.818;8.976;2023-12-28T01:21:43;2.57;;;1.80;;
15936;SDS011;9163;48.818;8.976;2023-12-28T01:24:12;3.43;;;2.00;;
15936;SDS011;9163;48.818;8.976;2023-12-28T01:26:39;2.70;;;1.77;;
15936;SDS011;9163;48.818;8.976;2023-12-28T01:29:06;2.60;;;1.73;;
15936;SDS011;9163;48.818;8.976;2023-12-28T01:31:34;2.10;;;1.63;;
15936;SDS011;9163;48.818;8.976;2023-12-28T01:34:01;3.00;;;2.20;;
15936;SDS011;9163;48.818;8.976;2023-12-28T01:36:28;2.60;;;1.50;;
15936;SDS011;9163;48.818;8.976;2023-12-28T01:38:56;3.67;;;1.53;;
15936;SDS011;9163;48.818;8.976;2023-12-28T01:41:24;2.37;;;1.80;;
15936;SDS011;9163;48.818;8.976;2023-12-28T01:43:51;2.40;;;1.70;;
15936;SDS011;9163;48.818;8.976;2023-12-28T01:46:19;3.87;;;1.97;;
15936;SDS011;9163;48.818;8.976;2023-12-28T01:48:48;3.50;;;1.90;;
15936;SDS011;9163;48.818;8.976;2023-12-28T01:51:16;2.70;;;1.60;;
15936;SDS011;9163;48.818;8.976;2023-12-28T01:53:44;2.93;;;1.80;;
15936;SDS011;9163;48.818;8.976;2023-12-28T01:56:14;1.90;;;1.50;;
15936;SDS011;9163;48.818;8.976;2023-12-28T01:58:43;2.87;;;1.80;;
15936;SDS011;9163;48.818;8.976;2023-12-28T02:01:12;3.30;;;1.70;;
15936;SDS011;9163;48.818;8.976;2023-12-28T02:03:40;3.40;;;1.70;;
15936;SDS011;9163;48.818;8.976;2023-12-28T02:06:07;1.93;;;1.63;;
15936;SDS011;9163;48.818;8.976;2023-12-28T02:08:34;3.53;;;1.90;;
15936;SDS011;9163;48.818;8.976;2023-12-28T02:11:01;2.60;;;1.67;;
15936;SDS011;9163;48.818;8.976;2023-12-28T02:13:29;2.13;;;1.80;;
15936;SDS011;9163;48.818;8.976;2023-12-28T02:16:00;1.90;;;1.60;;
15936;SDS011;9163;48.818;8.976;2023-12-28T02:18:33;5.53;;;1.73;;
15936;SDS011;9163;48.818;8.976;2023-12-28T02:21:04;2.23;;;1.60;;
15936;SDS011;9163;48.818;8.976;2023-12-28T02:23:33;2.50;;;1.67;;
15936;SDS011;9163;48.818;8.976;2023-12-28T02:26:01;3.43;;;1.70;;
15936;SDS011;9163;48.818;8.976;2023-12-28T02:28:28;2.10;;;1.60;;
15936;SDS011;9163;48.818;8.976;2023-12-28T02:30:56;2.17;;;1.60;;
15936;SDS011;9163;48.818;8.976;2023-12-28T02:33:24;3.27;;;1.83;;
15936;SDS011;9163;48.818;8.976;2023-12-28T02:35:57;3.17;;;1.97;;
15936;SDS011;9163;48.818;8.976;2023-12-28T02:38:28;2.50;;;1.47;;
15936;SDS011;9163;48.818;8.976;2023-12-28T02:40:57;2.40;;;1.30;;
15936;SDS011;9163;48.818;8.976;2023-12-28T02:43:26;1.83;;;1.30;;
15936;SDS011;9163;48.818;8.976;2023-12-28T02:45:53;1.83;;;1.30;;
15936;SDS011;9163;48.818;8.976;2023-12-28T02:48:20;1.33;;;1.07;;
15936;SDS011;9163;48.818;8.976;2023-12-28T02:50:48;2.80;;;1.20;;
15936;SDS011;9163;48.818;8.976;2023-12-28T02:53:15;1.47;;;1.20;;
15936;SDS011;9163;48.818;8.976;2023-12-28T02:55:42;1.83;;;1.20;;
15936;SDS011;9163;48.818;8.976;2023-12-28T02:58:09;2.13;;;1.30;;
15936;SDS011;9163;48.818;8.976;2023-12-28T03:00:38;2.10;;;1.23;;
15936;SDS011;9163;48.818;8.976;2023-12-28T03:03:05;2.00;;;1.20;;
15936;SDS011;9163;48.818;8.976;2023-12-28T03:05:32;1.90;;;1.10;;
15936;SDS011;9163;48.818;8.976;2023-12-28T03:08:00;2.17;;;1.17;;
15936;SDS011;9163;48.818;8.976;2023-12-28T03:10:27;2.00;;;1.33;;
15936;SDS011;9163;48.818;8.976;2023-12-28T03:12:54;2.67;;;1.10;;
15936;SDS011;9163;48.818;8.976;2023-12-28T03:15:23;2.87;;;1.53;;
15936;SDS011;9163;48.818;8.976;2023-12-28T03:17:53;3.57;;;1.50;;
15936;SDS011;9163;48.818;8.976;2023-12-28T03:20:21;1.73;;;1.10;;
15936;SDS011;9163;48.818;8.976;2023-12-28T03:22:48;2.23;;;1.33;;
15936;SDS011;9163;48.818;8.976;2023-12-28T03:25:15;2.57;;;1.30;;
15936;SDS011;9163;48.818;8.976;2023-12-28T03:27:42;2.43;;;1.40;;
15936;SDS011;9163;48.818;8.976;2023-12-28T03:30:10;3.17;;;1.40;;
15936;SDS011;9163;48.818;8.976;2023-12-28T03:32:38;4.03;;;1.33;;
15936;SDS011;9163;48.818;8.976;2023-12-28T03:35:06;3.03;;;1.43;;
15936;SDS011;9163;48.818;8.976;2023-12-28T03:37:34;1.77;;;1.30;;
15936;SDS011;9163;48.818;8.976;2023-12-28T03:40:01;2.47;;;1.20;;
15936;SDS011;9163;48.818;8.976;2023-12-28T03:42:28;1.90;;;1.10;;
15936;SDS011;9163;48.818;8.976;2023-12-28T03:44:55;1.80;;;1.20;;
15936;SDS011;9163;48.818;8.976;2023-12-28T03:47:23;2.30;;;1.10;;
15936;SDS011;9163;48.818;8.976;2023-12-28T03:49:50;3.80;;;1.23;;
15936;SDS011;9163;48.818;8.976;2023-12-28T03:52:18;2.63;;;1.40;;
15936;SDS011;9163;48.818;8.976;2023-12-28T03:54:46;2.77;;;1.20;;
15936;SDS011;9163;48.818;8.976;2023-12-28T03:57:13;1.97;;;1.40;;
15936;SDS011;9163;48.818;8.976;2023-12-28T03:59:40;3.63;;;1.17;;
15936;SDS011;9163;48.818;8.976;2023-12-28T04:02:07;1.60;;;1.20;;
15936;SDS011;9163;48.818;8.976;2023-12-28T04:04:34;1.60;;;1.10;;
15936;SDS011;9163;48.818;8.976;2023-12-28T04:07:02;1.60;;;1.10;;
15936;SDS011;9163;48.818;8.976;2023-12-28T04:09:34;2.03;;;1.20;;
15936;SDS011;9163;48.818;8.976;2023-12-28T04:12:01;2.33;;;1.20;;
15936;SDS011;9163;48.818;8.976;2023-12-28T04:14:28;2.50;;;1.40;;
15936;SDS011;9163;48.818;8.976;2023-12-28T04:16:56;2.80;;;1.60;;
15936;SDS011;9163;48.818;8.976;2023-12-28T04:19:23;3.03;;;1.60;;
15936;SDS011;9163;48.818;8.976;2023-12-28T04:21:50;2.10;;;1.40;;
15936;SDS011;9163;48.818;8.976;2023-12-28T04:24:17;2.20;;;1.23;;
15936;SDS011;9163;48.818;8.976;2023-12-28T04:26:46;2.43;;;1.43;;
15936;SDS011;9163;48.818;8.976;2023-12-28T04:29:13;1.97;;;1.40;;
15936;SDS011;9163;48.818;8.976;2023-12-28T04:31:40;2.03;;;1.40;;
15936;SDS011;9163;48.818;8.976;2023-12-28T04:34:08;1.63;;;1.40;;
15936;SDS011;9163;48.818;8.976;2023-12-28T04:36:39;2.90;;;1.50;;
15936;SDS011;9163;48.818;8.976;2023-12-28T04:39:07;2.33;;;1.50;;
15936;SDS011;9163;48.818;8.976;2023-12-28T04:41:34;2.33;;;1.60;;
15936;SDS011;9163;48.818;8.976;2023-12-28T04:44:03;2.63;;;1.33;;
15936;SDS011;9163;48.818;8.976;2023-12-28T04:46:30;2.43;;;1.50;;
15936;SDS011;9163;48.818;8.976;2023-12-28T04:48:57;2.07;;;1.30;;
15936;SDS011;9163;48.818;8.976;2023-12-28T04:51:24;1.93;;;1.30;;
15936;SDS011;9163;48.818;8.976;2023-12-28T04:53:52;3.10;;;1.60;;
15936;SDS011;9163;48.818;8.976;2023-12-28T04:56:19;5.87;;;1.80;;
15936;SDS011;9163;48.818;8.976;2023-12-28T04:58:46;4.13;;;1.50;;
15936;SDS011;9163;48.818;8.976;2023-12-28T05:01:15;2.20;;;1.30;;
15936;SDS011;9163;48.818;8.976;2023-12-28T05:03:42;2.20;;;1.60;;
15936;SDS011;9163;48.818;8.976;2023-12-28T05:06:09;3.07;;;1.77;;
15936;SDS011;9163;48.818;8.976;2023-12-28T05:08:36;5.97;;;2.30;;
15936;SDS011;9163;48.818;8.976;2023-12-28T05:11:05;3.40;;;1.70;;
15936;SDS011;9163;48.818;8.976;2023-12-28T05:13:32;2.10;;;1.50;;
15936;SDS011;9163;48.818;8.976;2023-12-28T05:16:00;1.93;;;1.30;;
15936;SDS011;9163;48.818;8.976;2023-12-28T05:18:29;2.77;;;1.50;;
15936;SDS011;9163;48.818;8.976;2023-12-28T05:20:56;3.20;;;1.23;;
15936;SDS011;9163;48.818;8.976;2023-12-28T05:23:23;1.90;;;1.40;;
15936;SDS011;9163;48.818;8.976;2023-12-28T05:25:50;2.83;;;1.27;;
15936;SDS011;9163;48.818;8.976;2023-12-28T05:28:18;1.60;;;1.10;;
15936;SDS011;9163;48.818;8.976;2023-12-28T05:30:45;2.60;;;1.30;;
15936;SDS011;9163;48.818;8.976;2023-12-28T05:33:12;1.53;;;1.20;;
15936;SDS011;9163;48.818;8.976;2023-12-28T05:35:40;1.60;;;1.10;;
15936;SDS011;9163;48.818;8.976;2023-12-28T05:38:08;2.20;;;1.10;;
15936;SDS011;9163;48.818;8.976;2023-12-28T05:40:35;1.50;;;0.90;;
15936;SDS011;9163;48.818;8.976;2023-12-28T05:43:02;4.17;;;1.40;;
15936;SDS011;9163;48.818;8.976;2023-12-28T05:45:30;1.37;;;0.90;;
15936;SDS011;9163;48.818;8.976;2023-12-28T05:47:57;2.53;;;1.07;;
15936;SDS011;9163;48.818;8.976;2023-12-28T05:50:24;2.07;;;0.97;;
15936;SDS011;9163;48.818;8.976;2023-12-28T05:52:53;2.50;;;1.00;;
15936;SDS011;9163;48.818;8.976;2023-12-28T05:55:20;1.83;;;1.10;;
15936;SDS011;9163;48.818;8.976;2023-12-28T05:57:47;3.63;;;1.23;;
15936;SDS011;9163;48.818;8.976;2023-12-28T06:00:15;1.70;;;0.80;;
15936;SDS011;9163;48.818;8.976;2023-12-28T06:02:42;1.80;;;1.10;;
15936;SDS011;9163;48.818;8.976;2023-12-28T06:05:11;1.83;;;1.00;;
15936;SDS011;9163;48.818;8.976;2023-12-28T06:07:39;2.60;;;1.13;;
15936;SDS011;9163;48.818;8.976;2023-12-28T06:10:08;1.90;;;0.93;;
15936;SDS011;9163;48.818;8.976;2023-12-28T06:12:35;3.00;;;1.30;;
15936;SDS011;9163;48.818;8.976;2023-12-28T06:15:03;2.50;;;1.40;;
15936;SDS011;9163;48.818;8.976;2023-12-28T06:17:31;2.50;;;1.30;;
15936;SDS011;9163;48.818;8.976;2023-12-28T06:19:58;2.27;;;1.00;;
15936;SDS011;9163;48.818;8.976;2023-12-28T06:22:25;2.40;;;1.23;;
15936;SDS011;9163;48.818;8.976;2023-12-28T06:24:55;1.80;;;1.00;;
15936;SDS011;9163;48.818;8.976;2023-12-28T06:27:23;3.40;;;1.37;;
15936;SDS011;9163;48.818;8.976;2023-12-28T06:29:51;2.10;;;0.93;;
15936;SDS011;9163;48.818;8.976;2023-12-28T06:32:18;1.90;;;0.83;;
15936;SDS011;9163;48.818;8.976;2023-12-28T06:34:49;1.30;;;0.90;;
15936;SDS011;9163;48.818;8.976;2023-12-28T06:37:28;1.93;;;1.10;;
15936;SDS011;9163;48.818;8.976;2023-12-28T06:39:55;1.40;;;0.90;;
15936;SDS011;9163;48.818;8.976;2023-12-28T06:42:24;1.90;;;0.90;;
15936;SDS011;9163;48.818;8.976;2023-12-28T06:44:51;2.23;;;1.10;;
15936;SDS011;9163;48.818;8.976;2023-12-28T06:47:18;3.27;;;1.00;;
15936;SDS011;9163;48.818;8.976;2023-12-28T06:49:45;1.93;;;0.93;;
15936;SDS011;9163;48.818;8.976;2023-12-28T06:52:13;2.07;;;0.90;;
15936;SDS011;9163;48.818;8.976;2023-12-28T06:54:40;2.83;;;1.00;;
15936;SDS011;9163;48.818;8.976;2023-12-28T06:57:07;2.77;;;0.90;;
15936;SDS011;9163;48.818;8.976;2023-12-28T06:59:36;1.93;;;1.00;;
15936;SDS011;9163;48.818;8.976;2023-12-28T07:02:03;1.67;;;1.20;;
15936;SDS011;9163;48.818;8.976;2023-12-28T07:04:30;1.77;;;1.07;;
15936;SDS011;9163;48.818;8.976;2023-12-28T07:06:58;2.87;;;1.10;;
15936;SDS011;9163;48.818;8.976;2023-12-28T07:09:25;2.37;;;1.37;;
15936;SDS011;9163;48.818;8.976;2023-12-28T07:11:52;1.87;;;1.13;;
15936;SDS011;9163;48.818;8.976;2023-12-28T07:14:20;1.60;;;1.10;;
15936;SDS011;9163;48.818;8.976;2023-12-28T07:16:48;2.00;;;1.40;;
15936;SDS011;9163;48.818;8.976;2023-12-28T07:19:15;1.63;;;1.10;;
15936;SDS011;9163;48.818;8.976;2023-12-28T07:21:42;2.20;;;1.10;;
15936;SDS011;9163;48.818;8.976;2023-12-28T07:24:10;1.90;;;1.40;;
15936;SDS011;9163;48.818;8.976;2023-12-28T07:26:37;2.93;;;0.90;;
15936;SDS011;9163;48.818;8.976;2023-12-28T07:29:04;2.87;;;1.30;;
15936;SDS011;9163;48.818;8.976;2023-12-28T07:31:31;3.17;;;1.20;;
15936;SDS011;9163;48.818;8.976;2023-12-28T07:34:00;3.00;;;1.20;;
15936;SDS011;9163;48.818;8.976;2023-12-28T07:36:27;1.60;;;1.00;;
15936;SDS011;9163;48.818;8.976;2023-12-28T07:38:55;1.90;;;1.10;;
15936;SDS011;9163;48.818;8.976;2023-12-28T07:41:22;2.57;;;1.17;;
15936;SDS011;9163;48.818;8.976;2023-12-28T07:43:49;1.33;;;0.90;;
15936;SDS011;9163;48.818;8.976;2023-12-28T07:46:16;3.47;;;1.20;;
15936;SDS011;9163;48.818;8.976;2023-12-28T07:48:44;1.90;;;1.00;;
15936;SDS011;9163;48.818;8.976;2023-12-28T07:51:14;4.07;;;1.20;;
15936;SDS011;9163;48.818;8.976;2023-12-28T07:53:41;3.17;;;1.20;;
15936;SDS011;9163;48.818;8.976;2023-12-28T07:56:08;2.30;;;1.20;;
15936;SDS011;9163;48.818;8.976;2023-12-28T07:58:35;6.97;;;1.60;;
15936;SDS011;9163;48.818;8.976;2023-12-28T08:01:08;1.43;;;0.90;;
15936;SDS011;9163;48.818;8.976;2023-12-28T08:03:36;2.60;;;1.07;;
15936;SDS011;9163;48.818;8.976;2023-12-28T08:06:03;5.37;;;1.17;;
15936;SDS011;9163;48.818;8.976;2023-12-28T08:08:32;2.77;;;1.03;;
15936;SDS011;9163;48.818;8.976;2023-12-28T08:10:59;6.23;;;1.20;;
15936;SDS011;9163;48.818;8.976;2023-12-28T08:13:27;2.57;;;1.03;;
15936;SDS011;9163;48.818;8.976;2023-12-28T08:15:54;1.73;;;1.07;;
15936;SDS011;9163;48.818;8.976;2023-12-28T08:18:21;1.33;;;1.23;;
15936;SDS011;9163;48.818;8.976;2023-12-28T08:20:49;4.67;;;1.20;;
15936;SDS011;9163;48.818;8.976;2023-12-28T08:23:16;2.10;;;1.30;;
15936;SDS011;9163;48.818;8.976;2023-12-28T08:25:45;1.67;;;1.00;;
15936;SDS011;9163;48.818;8.976;2023-12-28T08:28:12;2.50;;;1.20;;
15936;SDS011;9163;48.818;8.976;2023-12-28T08:30:39;3.27;;;1.10;;
15936;SDS011;9163;48.818;8.976;2023-12-28T08:33:06;3.87;;;1.40;;
15936;SDS011;9163;48.818;8.976;2023-12-28T08:35:34;3.37;;;1.07;;
15936;SDS011;9163;48.818;8.976;2023-12-28T08:38:01;2.33;;;1.33;;
15936;SDS011;9163;48.818;8.976;2023-12-28T08:40:28;1.90;;;1.20;;
15936;SDS011;9163;48.818;8.976;2023-12-28T08:42:57;2.47;;;1.20;;
15936;SDS011;9163;48.818;8.976;2023-12-28T08:45:24;2.63;;;1.40;;
15936;SDS011;9163;48.818;8.976;2023-12-28T08:47:51;2.10;;;1.00;;
15936;SDS011;9163;48.818;8.976;2023-12-28T08:50:19;2.27;;;1.13;;
15936;SDS011;9163;48.818;8.976;2023-12-28T08:52:46;4.97;;;1.40;;
15936;SDS011;9163;48.818;8.976;2023-12-28T08:55:13;2.00;;;1.20;;
15936;SDS011;9163;48.818;8.976;2023-12-28T08:57:40;2.37;;;1.03;;
15936;SDS011;9163;48.818;8.976;2023-12-28T09:00:10;1.93;;;1.40;;
15936;SDS011;9163;48.818;8.976;2023-12-28T09:02:40;2.13;;;1.03;;
15936;SDS011;9163;48.818;8.976;2023-12-28T09:05:07;2.63;;;1.30;;
15936;SDS011;9163;48.818;8.976;2023-12-28T09:07:35;2.80;;;1.30;;
15936;SDS011;9163;48.818;8.976;2023-12-28T09:10:08;1.67;;;1.07;;
15936;SDS011;9163;48.818;8.976;2023-12-28T09:12:36;1.30;;;1.07;;
15936;SDS011;9163;48.818;8.976;2023-12-28T09:15:04;3.03;;;1.80;;
15936;SDS011;9163;48.818;8.976;2023-12-28T09:17:34;2.53;;;1.30;;
15936;SDS011;9163;48.818;8.976;2023-12-28T09:20:01;2.27;;;1.20;;
15936;SDS011;9163;48.818;8.976;2023-12-28T09:22:29;1.97;;;1.20;;
15936;SDS011;9163;48.818;8.976;2023-12-28T09:24:57;2.70;;;1.30;;
15936;SDS011;9163;48.818;8.976;2023-12-28T09:27:24;3.43;;;1.37;;
15936;SDS011;9163;48.818;8.976;2023-12-28T09:29:51;1.93;;;1.20;;
15936;SDS011;9163;48.818;8.976;2023-12-28T09:32:18;2.57;;;1.20;;
15936;SDS011;9163;48.818;8.976;2023-12-28T09:34:47;2.60;;;1.37;;
15936;SDS011;9163;48.818;8.976;2023-12-28T09:37:14;1.87;;;1.37;;
15936;SDS011;9163;48.818;8.976;2023-12-28T09:39:41;4.27;;;1.20;;
15936;SDS011;9163;48.818;8.976;2023-12-28T09:42:13;2.57;;;1.30;;
15936;SDS011;9163;48.818;8.976;2023-12-28T09:44:43;2.83;;;1.40;;
15936;SDS011;9163;48.818;8.976;2023-12-28T09:47:11;2.03;;;1.40;;
15936;SDS011;9163;48.818;8.976;2023-12-28T09:49:40;1.77;;;1.30;;
15936;SDS011;9163;48.818;8.976;2023-12-28T09:52:11;2.53;;;1.30;;
15936;SDS011;9163;48.818;8.976;2023-12-28T09:54:38;2.53;;;1.30;;
15936;SDS011;9163;48.818;8.976;2023-12-28T09:57:05;3.23;;;1.30;;
15936;SDS011;9163;48.818;8.976;2023-12-28T09:59:32;2.07;;;1.30;;
15936;SDS011;9163;48.818;8.976;2023-12-28T10:02:00;2.47;;;1.40;;
15936;SDS011;9163;48.818;8.976;2023-12-28T10:04:28;1.50;;;1.30;;
15936;SDS011;9163;48.818;8.976;2023-12-28T10:06:55;2.73;;;1.40;;
15936;SDS011;9163;48.818;8.976;2023-12-28T10:09:24;2.40;;;1.10;;
15936;SDS011;9163;48.818;8.976;2023-12-28T10:11:53;2.13;;;1.33;;
15936;SDS011;9163;48.818;8.976;2023-12-28T10:14:21;1.67;;;1.10;;
15936;SDS011;9163;48.818;8.976;2023-12-28T10:16:49;1.60;;;1.00;;
15936;SDS011;9163;48.818;8.976;2023-12-28T10:19:20;2.07;;;1.20;;
15936;SDS011;9163;48.818;8.976;2023-12-28T10:21:48;2.03;;;1.00;;
15936;SDS011;9163;48.818;8.976;2023-12-28T10:24:15;2.23;;;1.17;;
15936;SDS011;9163;48.818;8.976;2023-12-28T10:26:44;1.40;;;0.90;;
15936;SDS011;9163;48.818;8.976;2023-12-28T10:29:11;2.10;;;1.07;;
15936;SDS011;9163;48.818;8.976;2023-12-28T10:31:41;2.83;;;1.10;;
15936;SDS011;9163;48.818;8.976;2023-12-28T10:34:16;1.70;;;1.13;;
15936;SDS011;9163;48.818;8.976;2023-12-28T10:36:43;2.40;;;1.17;;
15936;SDS011;9163;48.818;8.976;2023-12-28T10:39:12;1.70;;;1.10;;
15936;SDS011;9163;48.818;8.976;2023-12-28T10:41:47;2.47;;;1.03;;
15936;SDS011;9163;48.818;8.976;2023-12-28T10:44:17;2.23;;;1.10;;
15936;SDS011;9163;48.818;8.976;2023-12-28T10:46:47;2.10;;;1.07;;
15936;SDS011;9163;48.818;8.976;2023-12-28T10:49:17;1.30;;;1.10;;
15936;SDS011;9163;48.818;8.976;2023-12-28T10:51:46;2.10;;;1.00;;
15936;SDS011;9163;48.818;8.976;2023-12-28T10:54:20;2.00;;;1.00;;
15936;SDS011;9163;48.818;8.976;2023-12-28T10:57:01;2.17;;;1.10;;
15936;SDS011;9163;48.818;8.976;2023-12-28T10:59:35;1.43;;;0.93;;
15936;SDS011;9163;48.818;8.976;2023-12-28T11:02:09;2.60;;;1.00;;
15936;SDS011;9163;48.818;8.976;2023-12-28T11:04:45;1.70;;;1.17;;
15936;SDS011;9163;48.818;8.976;2023-12-28T11:07:14;2.97;;;1.20;;
15936;SDS011;9163;48.818;8.976;2023-12-28T11:09:44;1.47;;;1.10;;
15936;SDS011;9163;48.818;8.976;2023-12-28T11:12:12;1.37;;;1.10;;
15936;SDS011;9163;48.818;8.976;2023-12-28T11:14:43;3.87;;;1.10;;
15936;SDS011;9163;48.818;8.976;2023-12-28T11:17:11;1.93;;;1.10;;
15936;SDS011;9163;48.818;8.976;2023-12-28T11:19:42;1.70;;;1.10;;
15936;SDS011;9163;48.818;8.976;2023-12-28T11:22:09;1.93;;;1.10;;
15936;SDS011;9163;48.818;8.976;2023-12-28T11:24:37;2.70;;;1.20;;
15936;SDS011;9163;48.818;8.976;2023-12-28T11:27:05;1.80;;;1.30;;
15936;SDS011;9163;48.818;8.976;2023-12-28T11:29:33;1.57;;;1.10;;
15936;SDS011;9163;48.818;8.976;2023-12-28T11:32:01;2.60;;;1.30;;
15936;SDS011;9163;48.818;8.976;2023-12-28T11:34:28;2.73;;;1.13;;
15936;SDS011;9163;48.818;8.976;2023-12-28T11:37:00;1.50;;;1.00;;
15936;SDS011;9163;48.818;8.976;2023-12-28T11:39:31;1.60;;;1.00;;
15936;SDS011;9163;48.818;8.976;2023-12-28T11:42:00;2.80;;;1.47;;
15936;SDS011;9163;48.818;8.976;2023-12-28T11:44:28;2.90;;;1.50;;
15936;SDS011;9163;48.818;8.976;2023-12-28T11:46:57;13.07;;;6.27;;
15936;SDS011;9163;48.818;8.976;2023-12-28T11:49:25;15.67;;;6.23;;
15936;SDS011;9163;48.818;8.976;2023-12-28T11:51:54;10.70;;;5.13;;
15936;SDS011;9163;48.818;8.976;2023-12-28T11:54:23;8.67;;;3.90;;
15936;SDS011;9163;48.818;8.976;2023-12-28T11:56:51;11.07;;;5.50;;
15936;SDS011;9163;48.818;8.976;2023-12-28T11:59:18;8.17;;;3.13;;
15936;SDS011;9163;48.818;8.976;2023-12-28T12:01:49;8.57;;;3.77;;
15936;SDS011;9163;48.818;8.976;2023-12-28T12:04:18;19.03;;;7.50;;
15936;SDS011;9163;48.818;8.976;2023-12-28T12:06:45;12.63;;;5.20;;
15936;SDS011;9163;48.818;8.976;2023-12-28T12:09:13;10.90;;;4.33;;
15936;SDS011;9163;48.818;8.976;2023-12-28T12:11:41;17.57;;;7.83;;
15936;SDS011;9163;48.818;8.976;2023-12-28T12:14:08;16.50;;;7.67;;
15936;SDS011;9163;48.818;8.976;2023-12-28T12:16:36;15.90;;;6.77;;
15936;SDS011;9163;48.818;8.976;2023-12-28T12:19:04;20.20;;;8.17;;
15936;SDS011;9163;48.818;8.976;2023-12-28T12:21:33;12.07;;;5.47;;
15936;SDS011;9163;48.818;8.976;2023-12-28T12:24:00;2.80;;;1.80;;
15936;SDS011;9163;48.818;8.976;2023-12-28T12:26:28;2.77;;;1.37;;
15936;SDS011;9163;48.818;8.976;2023-12-28T12:28:56;2.73;;;1.40;;
15936;SDS011;9163;48.818;8.976;2023-12-28T12:31:24;2.57;;;1.60;;
15936;SDS011;9163;48.818;8.976;2023-12-28T12:33:51;1.93;;;1.30;;
15936;SDS011;9163;48.818;8.976;2023-12-28T12:36:19;1.63;;;1.13;;
15936;SDS011;9163;48.818;8.976;2023-12-28T12:38:48;3.13;;;1.17;;
15936;SDS011;9163;48.818;8.976;2023-12-28T12:41:16;2.10;;;1.30;;
15936;SDS011;9163;48.818;8.976;2023-12-28T12:43:44;2.23;;;1.10;;
15936;SDS011;9163;48.818;8.976;2023-12-28T12:46:12;1.93;;;1.40;;
15936;SDS011;9163;48.818;8.976;2023-12-28T12:48:39;2.60;;;1.40;;
15936;SDS011;9163;48.818;8.976;2023-12-28T12:51:06;3.97;;;1.47;;
15936;SDS011;9163;48.818;8.976;2023-12-28T12:53:35;1.97;;;1.30;;
15936;SDS011;9163;48.818;8.976;2023-12-28T12:56:04;4.30;;;1.57;;
15936;SDS011;9163;48.818;8.976;2023-12-28T12:58:33;3.17;;;1.30;;
15936;SDS011;9163;48.818;8.976;2023-12-28T13:01:01;2.30;;;1.20;;
15936;SDS011;9163;48.818;8.976;2023-12-28T13:03:28;2.37;;;1.30;;
15936;SDS011;9163;48.818;8.976;2023-12-28T13:05:56;2.27;;;1.30;;
15936;SDS011;9163;48.818;8.976;2023-12-28T13:08:23;5.93;;;3.43;;
15936;SDS011;9163;48.818;8.976;2023-12-28T13:10:51;4.70;;;2.97;;
15936;SDS011;9163;48.818;8.976;2023-12-28T13:13:20;3.40;;;1.57;;
15936;SDS011;9163;48.818;8.976;2023-12-28T13:15:50;2.43;;;1.53;;
15936;SDS011;9163;48.818;8.976;2023-12-28T13:18:17;3.13;;;1.57;;
15936;SDS011;9163;48.818;8.976;2023-12-28T13:27:08;2.00;;;1.30;;
15936;SDS011;9163;48.818;8.976;2023-12-28T13:29:37;1.90;;;1.40;;
15936;SDS011;9163;48.818;8.976;2023-12-28T13:32:04;2.20;;;1.60;;
15936;SDS011;9163;48.818;8.976;2023-12-28T13:34:32;3.60;;;1.53;;
15936;SDS011;9163;48.818;8.976;2023-12-28T13:37:00;2.30;;;1.50;;
15936;SDS011;9163;48.818;8.976;2023-12-28T13:39:28;2.83;;;1.37;;
15936;SDS011;9163;48.818;8.976;2023-12-28T13:41:55;1.53;;;1.20;;
15936;SDS011;9163;48.818;8.976;2023-12-28T13:44:23;2.60;;;1.20;;
15936;SDS011;9163;48.818;8.976;2023-12-28T13:46:51;1.97;;;1.30;;
15936;SDS011;9163;48.818;8.976;2023-12-28T13:49:19;1.30;;;1.20;;
15936;SDS011;9163;48.818;8.976;2023-12-28T13:51:46;2.13;;;1.07;;
15936;SDS011;9163;48.818;8.976;2023-12-28T13:54:15;2.00;;;1.47;;
15936;SDS011;9163;48.818;8.976;2023-12-28T13:56:42;1.93;;;1.53;;
15936;SDS011;9163;48.818;8.976;2023-12-28T13:59:10;1.70;;;1.20;;
15936;SDS011;9163;48.818;8.976;2023-12-28T14:01:37;1.63;;;1.10;;
15936;SDS011;9163;48.818;8.976;2023-12-28T14:04:06;2.40;;;1.57;;
15936;SDS011;9163;48.818;8.976;2023-12-28T14:06:34;2.87;;;1.50;;
15936;SDS011;9163;48.818;8.976;2023-12-28T14:09:01;1.90;;;1.40;;
15936;SDS011;9163;48.818;8.976;2023-12-28T14:11:28;2.37;;;1.87;;
15936;SDS011;9163;48.818;8.976;2023-12-28T14:13:55;2.57;;;1.40;;
15936;SDS011;9163;48.818;8.976;2023-12-28T14:16:23;1.50;;;1.40;;
15936;SDS011;9163;48.818;8.976;2023-12-28T14:18:50;2.13;;;1.27;;
15936;SDS011;9163;48.818;8.976;2023-12-28T14:21:19;2.17;;;1.43;;
15936;SDS011;9163;48.818;8.976;2023-12-28T14:23:47;4.47;;;3.03;;
15936;SDS011;9163;48.818;8.976;2023-12-28T14:26:15;3.30;;;1.20;;
15936;SDS011;9163;48.818;8.976;2023-12-28T14:28:43;1.77;;;1.20;;
15936;SDS011;9163;48.818;8.976;2023-12-28T14:31:11;1.20;;;1.10;;
15936;SDS011;9163;48.818;8.976;2023-12-28T14:33:39;1.07;;;0.93;;
15936;SDS011;9163;48.818;8.976;2023-12-28T14:36:09;1.80;;;1.50;;
15936;SDS011;9163;48.818;8.976;2023-12-28T14:38:45;2.23;;;1.47;;
15936;SDS011;9163;48.818;8.976;2023-12-28T14:41:13;1.43;;;1.20;;
15936;SDS011;9163;48.818;8.976;2023-12-28T14:43:40;2.50;;;1.33;;
15936;SDS011;9163;48.818;8.976;2023-12-28T14:46:07;2.00;;;1.30;;
15936;SDS011;9163;48.818;8.976;2023-12-28T14:48:34;2.57;;;1.33;;
15936;SDS011;9163;48.818;8.976;2023-12-28T14:51:02;1.73;;;1.17;;
15936;SDS011;9163;48.818;8.976;2023-12-28T14:53:29;2.13;;;1.40;;
15936;SDS011;9163;48.818;8.976;2023-12-28T14:55:58;1.97;;;1.40;;
15936;SDS011;9163;48.818;8.976;2023-12-28T14:58:26;2.67;;;1.40;;
15936;SDS011;9163;48.818;8.976;2023-12-28T15:00:55;2.00;;;1.37;;
15936;SDS011;9163;48.818;8.976;2023-12-28T15:03:22;3.87;;;1.80;;
15936;SDS011;9163;48.818;8.976;2023-12-28T15:05:50;3.50;;;1.70;;
15936;SDS011;9163;48.818;8.976;2023-12-28T15:08:18;3.27;;;1.60;;
15936;SDS011;9163;48.818;8.976;2023-12-28T15:10:45;1.80;;;1.53;;